createdAt,value
2018-05-06T00:02:04.398Z,12.60
2018-05-06T00:04:31.979Z,12.60
2018-05-06T00:06:59.524Z,12.50
2018-05-06T00:09:27.100Z,12.50
2018-05-06T00:11:54.731Z,12.50
2018-05-06T00:14:22.361Z,12.40
2018-05-06T00:16:49.950Z,12.40
2018-05-06T00:19:17.524Z,12.30
2018-05-06T00:21:45.228Z,12.30
2018-05-06T00:24:13.673Z,12.20
2018-05-06T00:26:41.230Z,12.20
2018-05-06T00:29:09.005Z,12.20
2018-05-06T00:31:36.668Z,12.20
2018-05-06T00:34:04.270Z,12.10
2018-05-06T00:36:32.039Z,12.10
2018-05-06T00:38:59.579Z,12.00
2018-05-06T00:41:27.160Z,12.00
2018-05-06T00:43:54.711Z,12.00
2018-05-06T00:46:22.376Z,12.00
2018-05-06T00:48:50.675Z,11.90
2018-05-06T00:51:18.263Z,11.90
2018-05-06T00:53:45.920Z,11.90
2018-05-06T00:56:13.584Z,11.90
2018-05-06T00:58:41.126Z,11.90
2018-05-06T01:01:08.794Z,11.80
2018-05-06T01:03:36.335Z,11.80
2018-05-06T01:06:03.967Z,11.80
2018-05-06T01:08:32.279Z,11.70
2018-05-06T01:10:59.838Z,11.70
2018-05-06T01:13:27.382Z,11.70
2018-05-06T01:15:54.996Z,11.60
2018-05-06T01:18:22.552Z,11.60
2018-05-06T01:20:50.128Z,11.60
2018-05-06T01:23:17.807Z,11.60
2018-05-06T01:25:46.135Z,11.50
2018-05-06T01:28:13.692Z,11.40
2018-05-06T01:30:41.373Z,11.40
2018-05-06T01:33:08.935Z,11.40
2018-05-06T01:35:38.003Z,11.30
2018-05-06T01:38:05.736Z,11.30
2018-05-06T01:40:33.275Z,11.30
2018-05-06T01:43:01.587Z,11.30
2018-05-06T01:45:29.127Z,11.30
2018-05-06T01:47:56.691Z,11.20
2018-05-06T01:50:24.243Z,11.20
2018-05-06T01:52:51.811Z,11.20
2018-05-06T01:55:19.375Z,11.20
2018-05-06T01:57:46.975Z,11.10
2018-05-06T02:00:14.524Z,11.10
2018-05-06T02:02:42.093Z,11.10
2018-05-06T02:05:09.701Z,11.00
2018-05-06T02:07:37.244Z,11.00
2018-05-06T02:10:05.568Z,10.90
2018-05-06T02:12:33.132Z,10.90
2018-05-06T02:15:00.804Z,10.90
2018-05-06T02:17:28.383Z,10.90
2018-05-06T02:19:55.920Z,10.90
2018-05-06T02:22:23.467Z,10.80
2018-05-06T02:24:51.108Z,10.80
2018-05-06T02:27:18.686Z,10.80
2018-05-06T02:29:46.228Z,10.80
2018-05-06T02:32:13.867Z,10.80
2018-05-06T02:34:41.381Z,10.80
2018-05-06T02:37:08.958Z,10.70
2018-05-06T02:39:36.512Z,10.70
2018-05-06T02:42:04.092Z,10.60
2018-05-06T02:44:31.663Z,10.60
2018-05-06T02:47:00.053Z,10.60
2018-05-06T02:49:28.383Z,10.50
2018-05-06T02:51:55.959Z,10.50
2018-05-06T02:54:23.532Z,9.80
2018-05-06T02:56:51.111Z,10.50
2018-05-06T02:59:19.427Z,10.40
2018-05-06T03:01:47.001Z,10.40
2018-05-06T03:04:14.544Z,10.40
2018-05-06T03:06:42.131Z,10.40
2018-05-06T03:09:09.698Z,10.30
2018-05-06T03:11:37.244Z,10.30
2018-05-06T03:14:04.931Z,10.30
2018-05-06T03:16:32.464Z,10.30
2018-05-06T03:19:00.031Z,10.30
2018-05-06T03:21:27.590Z,10.30
2018-05-06T03:23:55.152Z,10.30
2018-05-06T03:26:22.699Z,10.20
2018-05-06T03:28:50.275Z,10.20
2018-05-06T03:31:17.909Z,10.20
2018-05-06T03:33:45.478Z,10.10
2018-05-06T03:36:13.027Z,10.10
2018-05-06T03:38:40.593Z,10.10
2018-05-06T03:41:08.141Z,10.10
2018-05-06T03:43:35.677Z,10.00
2018-05-06T03:46:04.003Z,10.00
2018-05-06T03:48:31.563Z,10.00
2018-05-06T03:51:00.571Z,10.00
2018-05-06T03:53:28.899Z,9.90
2018-05-06T03:59:21.056Z,9.90
2018-05-06T04:01:50.064Z,9.90
2018-05-06T04:04:19.325Z,9.90
2018-05-06T04:06:46.860Z,9.90
2018-05-06T04:09:14.449Z,9.90
2018-05-06T04:11:42.760Z,9.90
2018-05-06T04:14:10.324Z,9.80
2018-05-06T04:16:37.872Z,9.90
2018-05-06T04:19:05.438Z,9.90
2018-05-06T04:21:33.019Z,9.90
2018-05-06T04:24:00.565Z,9.90
2018-05-06T04:26:28.131Z,9.90
2018-05-06T04:28:55.676Z,9.90
2018-05-06T04:31:23.236Z,10.00
2018-05-06T04:33:50.766Z,10.00
2018-05-06T04:36:19.248Z,10.00
2018-05-06T04:38:47.568Z,10.10
2018-05-06T04:41:15.188Z,10.00
2018-05-06T04:43:43.525Z,10.10
2018-05-06T04:46:11.088Z,10.10
2018-05-06T04:48:38.657Z,10.10
2018-05-06T04:51:06.976Z,10.20
2018-05-06T04:53:34.521Z,10.20
2018-05-06T04:56:02.851Z,10.20
2018-05-06T04:58:30.432Z,10.20
2018-05-06T05:00:59.487Z,10.30
2018-05-06T05:03:27.041Z,10.30
2018-05-06T05:05:54.629Z,10.30
2018-05-06T05:08:22.180Z,10.30
2018-05-06T05:10:49.748Z,10.40
2018-05-06T05:13:17.295Z,10.40
2018-05-06T05:15:44.860Z,10.50
2018-05-06T05:18:12.437Z,10.50
2018-05-06T05:20:39.976Z,10.60
2018-05-06T05:23:07.552Z,10.60
2018-05-06T05:25:35.100Z,10.70
2018-05-06T05:28:02.800Z,10.80
2018-05-06T05:30:30.424Z,10.80
2018-05-06T05:32:57.997Z,10.90
2018-05-06T05:35:25.555Z,11.00
2018-05-06T05:37:53.101Z,11.10
2018-05-06T05:40:20.672Z,11.30
2018-05-06T05:42:48.236Z,11.40
2018-05-06T05:47:49.671Z,11.70
2018-05-06T05:50:17.340Z,12.00
2018-05-06T05:52:44.900Z,12.50
2018-05-06T05:55:12.512Z,13.80
2018-05-06T05:57:40.137Z,15.30
2018-05-06T06:00:07.864Z,16.60
2018-05-06T06:02:36.196Z,19.20
2018-05-06T06:05:03.760Z,19.10
2018-05-06T06:07:31.324Z,20.10
2018-05-06T06:09:58.887Z,20.90
2018-05-06T06:12:26.443Z,21.10
2018-05-06T06:14:53.986Z,21.40
2018-05-06T06:17:21.545Z,21.70
2018-05-06T06:19:49.160Z,21.90
2018-05-06T06:22:17.445Z,22.40
2018-05-06T06:24:45.001Z,22.40
2018-05-06T06:27:13.295Z,22.40
2018-05-06T06:29:40.845Z,22.50
2018-05-06T06:32:08.370Z,22.40
2018-05-06T06:34:36.723Z,21.30
2018-05-06T06:37:04.263Z,21.30
2018-05-06T06:39:31.801Z,20.50
2018-05-06T06:41:59.376Z,19.80
2018-05-06T06:44:26.915Z,19.20
2018-05-06T06:46:54.591Z,18.50
2018-05-06T06:49:22.123Z,18.10
2018-05-06T06:51:50.414Z,17.50
2018-05-06T06:54:17.985Z,17.50
2018-05-06T06:56:45.515Z,17.30
2018-05-06T06:59:13.992Z,17.20
2018-05-06T07:01:41.593Z,17.20
2018-05-06T07:04:09.147Z,17.20
2018-05-06T07:06:36.686Z,17.10
2018-05-06T07:09:04.248Z,17.10
2018-05-06T07:11:31.810Z,17.20
2018-05-06T07:13:59.336Z,17.30
2018-05-06T07:16:26.886Z,17.40
2018-05-06T07:18:54.474Z,17.40
2018-05-06T07:21:26.906Z,17.50
2018-05-06T07:23:54.441Z,17.70
2018-05-06T07:26:21.988Z,17.80
2018-05-06T07:28:49.514Z,17.80
2018-05-06T07:31:17.307Z,18.00
2018-05-06T07:33:45.580Z,18.20
2018-05-06T07:36:13.253Z,18.20
2018-05-06T07:38:41.871Z,18.30
2018-05-06T07:41:09.392Z,18.40
2018-05-06T07:43:36.974Z,18.50
2018-05-06T07:46:04.482Z,18.60
2018-05-06T07:48:32.038Z,18.70
2018-05-06T07:50:59.573Z,18.70
2018-05-06T07:53:27.120Z,18.70
2018-05-06T07:55:54.810Z,18.90
2018-05-06T07:58:22.414Z,19.00
2018-05-06T08:00:49.988Z,19.10
2018-05-06T08:03:18.371Z,19.20
2018-05-06T08:05:46.360Z,19.30
2018-05-06T08:08:14.822Z,19.50
2018-05-06T08:10:42.386Z,19.50
2018-05-06T08:13:10.659Z,19.60
2018-05-06T08:15:38.178Z,19.50
2018-05-06T08:18:06.503Z,19.70
2018-05-06T08:20:34.039Z,19.70
2018-05-06T08:23:01.570Z,19.80
2018-05-06T08:25:29.121Z,19.70
2018-05-06T08:27:56.676Z,19.70
2018-05-06T08:30:24.184Z,19.90
2018-05-06T08:32:53.607Z,20.00
2018-05-06T08:35:21.151Z,20.00
2018-05-06T08:37:48.702Z,20.10
2018-05-06T08:40:16.254Z,20.20
2018-05-06T08:42:43.802Z,20.30
2018-05-06T08:45:12.285Z,20.40
2018-05-06T08:47:40.581Z,20.50
2018-05-06T08:50:08.137Z,20.50
2018-05-06T08:55:15.418Z,20.40
2018-05-06T08:57:43.718Z,20.50
2018-05-06T09:00:11.268Z,20.50
2018-05-06T09:02:39.562Z,20.70
2018-05-06T09:05:07.128Z,20.70
2018-05-06T09:07:34.656Z,20.80
2018-05-06T09:10:02.996Z,20.60
2018-05-06T09:12:30.497Z,20.60
2018-05-06T09:14:59.734Z,20.70
2018-05-06T09:17:28.431Z,20.70
2018-05-06T09:20:02.637Z,20.70
2018-05-06T09:22:30.196Z,20.70
2018-05-06T09:24:57.739Z,20.80
2018-05-06T09:27:25.263Z,20.80
2018-05-06T09:29:53.567Z,21.00
2018-05-06T09:32:21.131Z,20.90
2018-05-06T09:34:49.425Z,21.00
2018-05-06T09:37:16.977Z,21.00
2018-05-06T09:39:44.581Z,21.00
2018-05-06T09:42:12.217Z,21.10
2018-05-06T09:44:39.749Z,21.10
2018-05-06T09:47:07.277Z,21.10
2018-05-06T09:49:37.576Z,21.40
2018-05-06T09:52:05.117Z,21.30
2018-05-06T09:54:32.834Z,21.40
2018-05-06T09:57:01.162Z,21.50
2018-05-06T09:59:28.704Z,21.50
2018-05-06T10:01:56.294Z,21.70
2018-05-06T10:04:25.533Z,21.70
2018-05-06T10:06:53.066Z,21.60
2018-05-06T10:09:21.565Z,21.70
2018-05-06T10:11:49.923Z,22.10
2018-05-06T10:14:17.457Z,22.00
2018-05-06T10:16:44.999Z,22.30
2018-05-06T10:19:12.539Z,22.50
2018-05-06T10:21:40.065Z,22.60
2018-05-06T10:24:07.608Z,22.50
2018-05-06T10:26:35.129Z,22.60
2018-05-06T10:29:02.754Z,22.60
2018-05-06T10:31:30.276Z,22.40
2018-05-06T10:33:57.845Z,22.30
2018-05-06T10:36:25.378Z,22.30
2018-05-06T10:38:52.920Z,22.40
2018-05-06T10:43:54.572Z,22.50
2018-05-06T10:46:22.041Z,22.70
2018-05-06T10:48:50.401Z,23.00
2018-05-06T10:51:17.960Z,22.90
2018-05-06T10:53:45.486Z,23.10
2018-05-06T10:56:13.130Z,23.20
2018-05-06T10:58:40.647Z,23.20
2018-05-06T11:01:09.016Z,23.30
2018-05-06T11:03:36.544Z,23.30
2018-05-06T11:06:04.182Z,23.30
2018-05-06T11:08:31.693Z,23.10
2018-05-06T11:10:59.238Z,23.10
2018-05-06T11:13:30.131Z,23.30
2018-05-06T11:15:57.668Z,23.40
2018-05-06T11:18:27.160Z,23.40
2018-05-06T11:20:54.691Z,23.40
2018-05-06T11:23:22.235Z,23.50
2018-05-06T11:25:49.772Z,23.60
2018-05-06T11:28:17.355Z,23.60
2018-05-06T11:30:45.116Z,23.80
2018-05-06T11:33:13.410Z,23.90
2018-05-06T11:35:41.054Z,23.90
2018-05-06T11:38:08.683Z,24.00
2018-05-06T11:40:37.027Z,24.30
2018-05-06T11:43:04.603Z,24.20
2018-05-06T11:45:32.164Z,24.30
2018-05-06T11:48:00.263Z,24.20
2018-05-06T11:50:28.580Z,24.20
2018-05-06T11:52:56.123Z,24.20
2018-05-06T11:55:23.700Z,24.30
2018-05-06T11:57:51.280Z,24.30
2018-05-06T12:00:18.856Z,24.30
2018-05-06T12:02:46.376Z,24.40
2018-05-06T12:05:13.946Z,24.40
2018-05-06T12:07:41.509Z,24.30
2018-05-06T12:10:09.064Z,24.40
2018-05-06T12:12:36.923Z,24.50
2018-05-06T12:15:05.822Z,24.50
2018-05-06T12:17:33.525Z,24.70
2018-05-06T12:20:02.079Z,24.70
2018-05-06T12:22:29.867Z,24.60
2018-05-06T12:24:58.421Z,24.70
2018-05-06T12:27:26.230Z,24.70
2018-05-06T12:29:54.130Z,24.70
2018-05-06T12:32:21.908Z,24.90
2018-05-06T12:34:49.865Z,25.00
2018-05-06T12:37:17.939Z,25.10
2018-05-06T12:39:45.841Z,25.00
2018-05-06T12:42:13.545Z,25.00
2018-05-06T12:44:41.445Z,25.10
2018-05-06T12:47:09.380Z,25.20
2018-05-06T12:49:37.218Z,25.20
2018-05-06T12:52:05.972Z,25.30
2018-05-06T12:54:33.825Z,25.30
2018-05-06T12:57:01.711Z,25.40
2018-05-06T12:59:29.538Z,25.30
2018-05-06T13:01:57.398Z,25.40
2018-05-06T13:04:25.603Z,25.10
2018-05-06T13:06:53.442Z,25.10
2018-05-06T13:09:21.044Z,25.20
2018-05-06T13:11:48.629Z,25.30
2018-05-06T13:14:18.111Z,25.40
2018-05-06T13:16:45.702Z,25.40
2018-05-06T13:19:13.288Z,25.40
2018-05-06T13:21:40.977Z,25.50
2018-05-06T13:24:08.617Z,25.60
2018-05-06T13:26:40.970Z,25.60
2018-05-06T13:29:08.576Z,25.50
2018-05-06T13:31:36.159Z,25.50
2018-05-06T13:34:03.692Z,25.60
2018-05-06T13:36:32.807Z,25.70
2018-05-06T13:39:00.372Z,25.90
2018-05-06T13:41:28.111Z,25.90
2018-05-06T13:43:55.657Z,26.00
2018-05-06T13:46:23.233Z,26.00
2018-05-06T13:48:50.799Z,26.00
2018-05-06T13:51:18.371Z,26.00
2018-05-06T13:53:45.911Z,26.10
2018-05-06T13:56:13.607Z,26.10
2018-05-06T13:58:41.171Z,26.20
2018-05-06T14:01:09.862Z,26.30
2018-05-06T14:03:37.497Z,26.20
2018-05-06T14:06:05.121Z,26.20
2018-05-06T14:08:33.427Z,26.10
2018-05-06T14:11:00.980Z,26.10
2018-05-06T14:13:28.552Z,26.00
2018-05-06T14:15:56.128Z,26.10
2018-05-06T14:18:27.039Z,26.10
2018-05-06T14:20:54.640Z,26.20
2018-05-06T14:23:22.221Z,26.30
2018-05-06T14:25:50.641Z,26.40
2018-05-06T14:28:18.303Z,26.40
2018-05-06T14:30:45.853Z,26.50
2018-05-06T14:33:13.435Z,26.60
2018-05-06T14:35:40.983Z,26.70
2018-05-06T14:38:08.560Z,26.70
2018-05-06T14:40:36.107Z,26.70
2018-05-06T14:43:03.668Z,26.70
2018-05-06T14:45:31.246Z,26.80
2018-05-06T14:48:10.729Z,26.80
2018-05-06T14:50:39.142Z,26.70
2018-05-06T14:53:06.700Z,26.70
2018-05-06T14:55:34.362Z,26.60
2018-05-06T14:58:01.904Z,26.50
2018-05-06T15:00:30.231Z,26.50
2018-05-06T15:02:57.798Z,26.40
2018-05-06T15:05:25.729Z,26.30
2018-05-06T15:07:53.293Z,26.30
2018-05-06T15:10:20.879Z,26.20
2018-05-06T15:12:48.411Z,26.30
2018-05-06T15:15:16.016Z,26.40
2018-05-06T15:17:43.556Z,26.40
2018-05-06T15:20:11.131Z,26.40
2018-05-06T15:22:38.702Z,26.50
2018-05-06T15:25:06.535Z,26.50
2018-05-06T15:27:34.084Z,26.50
2018-05-06T15:30:01.662Z,26.50
2018-05-06T15:32:29.210Z,26.40
2018-05-06T15:34:56.814Z,26.30
2018-05-06T15:37:25.032Z,26.40
2018-05-06T15:39:52.639Z,26.30
2018-05-06T15:42:20.205Z,26.20
2018-05-06T15:44:47.812Z,26.20
2018-05-06T15:47:15.382Z,26.30
2018-05-06T15:49:42.955Z,26.30
2018-05-06T15:52:10.522Z,26.30
2018-05-06T15:54:38.358Z,26.30
2018-05-06T15:57:05.935Z,26.30
2018-05-06T15:59:33.516Z,26.30
2018-05-06T16:05:01.696Z,26.20
2018-05-06T16:07:29.268Z,26.20
2018-05-06T16:09:56.831Z,26.30
2018-05-06T16:12:24.409Z,26.30
2018-05-06T16:14:52.096Z,26.30
2018-05-06T16:17:20.434Z,26.20
2018-05-06T16:19:47.976Z,26.20
2018-05-06T16:22:15.704Z,26.20
2018-05-06T16:24:43.312Z,26.10
2018-05-06T16:27:10.952Z,26.10
2018-05-06T16:29:38.590Z,26.10
2018-05-06T16:32:06.108Z,26.00
2018-05-06T16:34:33.693Z,26.10
2018-05-06T16:37:02.048Z,26.00
2018-05-06T16:39:29.667Z,26.00
2018-05-06T16:41:57.248Z,26.00
2018-05-06T16:44:24.833Z,26.10
2018-05-06T16:46:52.439Z,26.00
2018-05-06T16:49:20.238Z,26.00
2018-05-06T16:51:47.788Z,25.90
2018-05-06T16:54:15.351Z,25.90
2018-05-06T16:56:42.932Z,25.90
2018-05-06T16:59:10.484Z,25.80
2018-05-06T17:01:38.091Z,25.80
2018-05-06T17:04:06.428Z,25.80
2018-05-06T17:06:34.028Z,25.80
2018-05-06T17:09:02.359Z,25.70
2018-05-06T17:11:29.991Z,25.60
2018-05-06T17:13:57.617Z,25.60
2018-05-06T17:16:25.171Z,25.50
2018-05-06T17:18:53.511Z,25.50
2018-05-06T17:21:21.071Z,25.40
2018-05-06T17:23:48.649Z,25.40
2018-05-06T17:26:16.200Z,25.40
2018-05-06T17:28:43.833Z,25.20
2018-05-06T17:31:11.396Z,25.20
2018-05-06T17:33:38.959Z,25.20
2018-05-06T17:36:06.541Z,25.10
2018-05-06T17:38:34.111Z,25.00
2018-05-06T17:41:01.675Z,24.90
2018-05-06T17:43:29.240Z,24.80
2018-05-06T17:45:56.804Z,24.80
2018-05-06T17:48:24.380Z,24.70
2018-05-06T17:50:52.741Z,24.60
2018-05-06T17:53:20.331Z,24.60
2018-05-06T17:55:48.100Z,24.50
2018-05-06T17:58:15.640Z,24.50
2018-05-06T18:00:43.216Z,24.40
2018-05-06T18:03:11.534Z,24.30
2018-05-06T18:05:39.120Z,24.30
2018-05-06T18:08:06.676Z,24.20
2018-05-06T18:10:34.256Z,24.10
2018-05-06T18:13:02.615Z,23.90
2018-05-06T18:15:30.215Z,23.90
2018-05-06T18:17:57.822Z,23.80
2018-05-06T18:20:25.355Z,23.70
2018-05-06T18:22:52.955Z,23.60
2018-05-06T18:25:20.610Z,23.40
2018-05-06T18:27:48.164Z,23.20
2018-05-06T18:30:15.711Z,23.10
2018-05-06T18:32:43.283Z,23.00
2018-05-06T18:35:10.840Z,22.90
2018-05-06T18:37:38.427Z,22.80
2018-05-06T18:40:06.015Z,22.60
2018-05-06T18:42:34.413Z,22.40
2018-05-06T18:45:01.976Z,22.50
2018-05-06T18:47:29.559Z,22.40
2018-05-06T18:49:57.127Z,22.30
2018-05-06T18:52:24.892Z,22.20
2018-05-06T18:54:52.560Z,22.10
2018-05-06T18:57:20.302Z,22.00
2018-05-06T18:59:47.816Z,22.00
2018-05-06T19:02:16.140Z,21.60
2018-05-06T19:04:43.736Z,21.60
2018-05-06T19:07:11.397Z,21.40
2018-05-06T19:09:38.980Z,21.30
2018-05-06T19:12:07.327Z,21.10
2018-05-06T19:14:34.892Z,21.10
2018-05-06T19:17:02.521Z,21.10
2018-05-06T19:19:30.836Z,21.10
2018-05-06T19:21:59.237Z,21.00
2018-05-06T19:24:27.872Z,21.00
2018-05-06T19:26:55.441Z,20.90
2018-05-06T19:29:23.026Z,21.00
2018-05-06T19:31:50.602Z,21.00
2018-05-06T19:34:18.183Z,20.90
2018-05-06T19:36:45.751Z,20.80
2018-05-06T19:39:13.316Z,20.80
2018-05-06T19:41:40.911Z,20.80
2018-05-06T19:44:08.493Z,20.70
2018-05-06T19:46:36.047Z,20.60
2018-05-06T19:49:03.696Z,20.60
2018-05-06T19:51:32.094Z,20.40
2018-05-06T19:53:59.647Z,20.40
2018-05-06T19:56:28.732Z,20.10
2018-05-06T19:58:56.296Z,20.20
2018-05-06T20:01:23.887Z,20.00
2018-05-06T20:03:52.224Z,19.90
2018-05-06T20:06:20.061Z,19.80
2018-05-06T20:08:47.672Z,19.80
2018-05-06T20:11:15.997Z,19.60
2018-05-06T20:13:43.563Z,19.50
2018-05-06T20:16:11.162Z,19.40
2018-05-06T20:18:38.745Z,19.40
2018-05-06T20:21:07.256Z,19.20
2018-05-06T20:23:34.864Z,19.10
2018-05-06T20:26:02.436Z,19.10
2018-05-06T20:28:30.016Z,19.00
2018-05-06T20:30:58.487Z,18.80
2018-05-06T20:33:26.136Z,18.70
2018-05-06T20:35:53.728Z,18.60
2018-05-06T20:38:21.349Z,18.50
2018-05-06T20:40:48.856Z,18.40
2018-05-06T20:43:16.433Z,18.30
2018-05-06T20:45:44.017Z,18.20
2018-05-06T20:48:11.599Z,18.20
2018-05-06T20:50:40.653Z,18.00
2018-05-06T20:53:08.223Z,17.90
2018-05-06T20:55:35.836Z,17.90
2018-05-06T20:58:04.171Z,17.70
2018-05-06T21:00:31.742Z,17.70
2018-05-06T21:02:59.322Z,17.60
2018-05-06T21:05:27.682Z,17.50
2018-05-06T21:07:55.255Z,17.50
2018-05-06T21:10:22.902Z,17.50
2018-05-06T21:12:51.170Z,17.30
2018-05-06T21:15:18.724Z,17.30
2018-05-06T21:17:46.310Z,17.20
2018-05-06T21:20:13.879Z,17.10
2018-05-06T21:22:42.263Z,17.00
2018-05-06T21:25:09.858Z,17.00
2018-05-06T21:27:37.554Z,16.90
2018-05-06T21:30:05.110Z,16.80
2018-05-06T21:32:32.780Z,16.80
2018-05-06T21:35:01.871Z,16.60
2018-05-06T21:37:29.464Z,16.60
2018-05-06T21:39:57.039Z,16.50
2018-05-06T21:42:25.355Z,16.40
2018-05-06T21:44:52.958Z,16.40
2018-05-06T21:47:20.517Z,16.30
2018-05-06T21:49:48.101Z,16.30
2018-05-06T21:52:16.514Z,16.20
2018-05-06T21:54:44.076Z,16.20
2018-05-06T21:57:11.705Z,16.10
2018-05-06T21:59:39.329Z,16.10
2018-05-06T22:02:06.899Z,16.00
2018-05-06T22:04:34.623Z,16.00
2018-05-06T22:07:02.187Z,15.90
2018-05-06T22:09:29.760Z,15.90
2018-05-06T22:11:57.344Z,15.80
2018-05-06T22:14:24.967Z,15.80
2018-05-06T22:16:52.579Z,15.80
2018-05-06T22:19:20.929Z,15.70
2018-05-06T22:21:48.540Z,15.70
2018-05-06T22:24:16.136Z,15.70
2018-05-06T22:26:43.705Z,15.60
2018-05-06T22:29:11.331Z,15.50
2018-05-06T22:31:38.892Z,15.50
2018-05-06T22:34:06.527Z,15.50
2018-05-06T22:36:34.116Z,15.50
2018-05-06T22:39:01.691Z,15.40
2018-05-06T22:41:29.342Z,15.40
2018-05-06T22:43:57.559Z,15.30
2018-05-06T22:46:25.108Z,15.30
2018-05-06T22:48:52.835Z,15.30
2018-05-06T22:51:20.387Z,15.20
2018-05-06T22:53:47.977Z,15.20
2018-05-06T22:56:15.544Z,15.10
2018-05-06T22:58:43.154Z,15.10
2018-05-06T23:01:11.497Z,15.00
2018-05-06T23:03:39.055Z,15.00
2018-05-06T23:06:06.603Z,15.00
2018-05-06T23:08:34.164Z,14.90
2018-05-06T23:11:01.720Z,14.90
2018-05-06T23:13:29.345Z,14.90
2018-05-06T23:15:56.927Z,14.80
2018-05-06T23:18:24.478Z,14.80
2018-05-06T23:20:52.084Z,14.70
2018-05-06T23:23:19.590Z,14.70
2018-05-06T23:25:47.179Z,14.70
2018-05-06T23:28:14.755Z,14.60
2018-05-06T23:30:42.373Z,14.60
2018-05-06T23:33:09.940Z,14.60
2018-05-06T23:35:37.604Z,14.60
2018-05-06T23:38:05.584Z,14.50
2018-05-06T23:40:33.160Z,14.50
2018-05-06T23:43:00.715Z,14.50
2018-05-06T23:45:28.264Z,14.40
2018-05-06T23:47:55.945Z,14.40
2018-05-06T23:50:23.590Z,14.40
2018-05-06T23:52:51.171Z,14.30
2018-05-06T23:55:18.855Z,14.30
2018-05-06T23:57:46.489Z,14.30
